sensor_id;sensor_type;location;lat;lon;timestamp;temperature;humidity
39021;DHT22;25188;51.958;5.842;2022-09-29T00:01:51;8.20;98.00
39021;DHT22;25188;51.958;5.842;2022-09-29T00:04:16;8.40;98.10
39021;DHT22;25188;51.958;5.842;2022-09-29T00:06:42;8.30;98.10
39021;DHT22;25188;51.958;5.842;2022-09-29T00:09:08;8.20;98.10
39021;DHT22;25188;51.958;5.842;2022-09-29T00:11:33;8.30;98.20
39021;DHT22;25188;51.958;5.842;2022-09-29T00:13:59;8.20;98.30
39021;DHT22;25188;51.958;5.842;2022-09-29T00:16:25;8.20;98.30
39021;DHT22;25188;51.958;5.842;2022-09-29T00:18:53;8.20;98.40
39021;DHT22;25188;51.958;5.842;2022-09-29T00:21:19;8.10;98.40
39021;DHT22;25188;51.958;5.842;2022-09-29T00:23:45;8.10;98.50
39021;DHT22;25188;51.958;5.842;2022-09-29T00:26:18;8.10;98.50
39021;DHT22;25188;51.958;5.842;2022-09-29T00:29:10;8.10;98.60
39021;DHT22;25188;51.958;5.842;2022-09-29T00:31:35;8.10;98.70
39021;DHT22;25188;51.958;5.842;2022-09-29T00:34:01;8.10;98.70
39021;DHT22;25188;51.958;5.842;2022-09-29T00:36:26;8.00;98.70
39021;DHT22;25188;51.958;5.842;2022-09-29T00:38:56;8.00;98.80
39021;DHT22;25188;51.958;5.842;2022-09-29T00:41:25;8.00;98.80
39021;DHT22;25188;51.958;5.842;2022-09-29T00:49:05;7.90;99.00
39021;DHT22;25188;51.958;5.842;2022-09-29T00:51:33;7.90;99.30
39021;DHT22;25188;51.958;5.842;2022-09-29T00:54:01;7.90;99.10
39021;DHT22;25188;51.958;5.842;2022-09-29T00:56:29;7.90;99.20
39021;DHT22;25188;51.958;5.842;2022-09-29T00:59:02;7.90;99.20
39021;DHT22;25188;51.958;5.842;2022-09-29T01:01:30;7.90;99.20
39021;DHT22;25188;51.958;5.842;2022-09-29T01:04:00;7.90;99.30
39021;DHT22;25188;51.958;5.842;2022-09-29T01:06:42;7.90;99.30
39021;DHT22;25188;51.958;5.842;2022-09-29T01:09:18;7.80;99.30
39021;DHT22;25188;51.958;5.842;2022-09-29T01:11:45;7.80;99.30
39021;DHT22;25188;51.958;5.842;2022-09-29T01:14:12;7.70;99.30
39021;DHT22;25188;51.958;5.842;2022-09-29T01:16:38;7.80;99.40
39021;DHT22;25188;51.958;5.842;2022-09-29T01:19:24;7.80;99.50
39021;DHT22;25188;51.958;5.842;2022-09-29T01:30:55;7.70;99.90
39021;DHT22;25188;51.958;5.842;2022-09-29T01:39:00;7.70;99.90
39021;DHT22;25188;51.958;5.842;2022-09-29T01:41:45;7.70;99.90
39021;DHT22;25188;51.958;5.842;2022-09-29T01:44:38;7.80;99.90
39021;DHT22;25188;51.958;5.842;2022-09-29T01:47:11;7.70;99.90
39021;DHT22;25188;51.958;5.842;2022-09-29T01:49:42;7.70;99.90
39021;DHT22;25188;51.958;5.842;2022-09-29T01:52:18;7.70;99.90
39021;DHT22;25188;51.958;5.842;2022-09-29T01:54:59;7.70;99.90
39021;DHT22;25188;51.958;5.842;2022-09-29T02:00:09;7.60;99.90
39021;DHT22;25188;51.958;5.842;2022-09-29T02:05:24;7.60;99.90
39021;DHT22;25188;51.958;5.842;2022-09-29T02:07:52;7.60;99.90
39021;DHT22;25188;51.958;5.842;2022-09-29T02:10:26;7.60;99.90
39021;DHT22;25188;51.958;5.842;2022-09-29T02:12:54;7.60;99.90
39021;DHT22;25188;51.958;5.842;2022-09-29T02:15:25;7.60;99.90
39021;DHT22;25188;51.958;5.842;2022-09-29T02:17:55;7.50;99.90
39021;DHT22;25188;51.958;5.842;2022-09-29T02:20:22;7.50;99.90
39021;DHT22;25188;51.958;5.842;2022-09-29T02:22:48;7.50;99.90
39021;DHT22;25188;51.958;5.842;2022-09-29T02:25:16;7.50;99.90
39021;DHT22;25188;51.958;5.842;2022-09-29T02:27:43;7.50;99.90
39021;DHT22;25188;51.958;5.842;2022-09-29T02:30:11;7.60;99.90
39021;DHT22;25188;51.958;5.842;2022-09-29T02:32:37;7.50;99.90
39021;DHT22;25188;51.958;5.842;2022-09-29T02:35:05;7.50;99.90
39021;DHT22;25188;51.958;5.842;2022-09-29T02:51:33;7.30;99.90
39021;DHT22;25188;51.958;5.842;2022-09-29T02:54:18;7.20;99.90
39021;DHT22;25188;51.958;5.842;2022-09-29T03:00:06;7.20;99.90
39021;DHT22;25188;51.958;5.842;2022-09-29T03:02:34;7.20;99.90
39021;DHT22;25188;51.958;5.842;2022-09-29T03:05:02;7.10;99.90
39021;DHT22;25188;51.958;5.842;2022-09-29T03:07:28;7.10;99.90
39021;DHT22;25188;51.958;5.842;2022-09-29T03:09:53;7.10;99.90
39021;DHT22;25188;51.958;5.842;2022-09-29T03:12:19;7.00;99.90
39021;DHT22;25188;51.958;5.842;2022-09-29T03:14:45;7.00;99.90
39021;DHT22;25188;51.958;5.842;2022-09-29T03:17:10;7.00;99.90
39021;DHT22;25188;51.958;5.842;2022-09-29T03:19:36;7.10;99.90
39021;DHT22;25188;51.958;5.842;2022-09-29T03:22:02;7.00;99.90
39021;DHT22;25188;51.958;5.842;2022-09-29T03:24:28;7.00;99.90
39021;DHT22;25188;51.958;5.842;2022-09-29T03:26:54;7.00;99.90
39021;DHT22;25188;51.958;5.842;2022-09-29T03:29:19;6.90;99.90
39021;DHT22;25188;51.958;5.842;2022-09-29T03:31:45;6.90;99.90
39021;DHT22;25188;51.958;5.842;2022-09-29T03:34:11;6.90;99.90
39021;DHT22;25188;51.958;5.842;2022-09-29T03:36:36;6.90;99.90
39021;DHT22;25188;51.958;5.842;2022-09-29T03:39:02;6.90;99.90
39021;DHT22;25188;51.958;5.842;2022-09-29T03:41:28;6.80;99.90
39021;DHT22;25188;51.958;5.842;2022-09-29T03:43:53;6.80;99.90
39021;DHT22;25188;51.958;5.842;2022-09-29T03:46:19;6.70;99.90
39021;DHT22;25188;51.958;5.842;2022-09-29T03:48:45;6.80;99.90
39021;DHT22;25188;51.958;5.842;2022-09-29T03:51:10;6.80;99.90
39021;DHT22;25188;51.958;5.842;2022-09-29T03:53:36;6.70;99.90
39021;DHT22;25188;51.958;5.842;2022-09-29T03:56:02;6.70;99.90
39021;DHT22;25188;51.958;5.842;2022-09-29T03:58:28;6.80;99.90
39021;DHT22;25188;51.958;5.842;2022-09-29T04:00:54;6.70;99.90
39021;DHT22;25188;51.958;5.842;2022-09-29T04:03:20;6.60;99.90
39021;DHT22;25188;51.958;5.842;2022-09-29T04:05:46;6.60;99.90
39021;DHT22;25188;51.958;5.842;2022-09-29T04:08:12;6.60;99.90
39021;DHT22;25188;51.958;5.842;2022-09-29T04:10:39;6.60;99.90
39021;DHT22;25188;51.958;5.842;2022-09-29T04:13:05;6.50;99.90
39021;DHT22;25188;51.958;5.842;2022-09-29T04:15:31;6.60;99.90
39021;DHT22;25188;51.958;5.842;2022-09-29T04:17:58;6.50;99.90
39021;DHT22;25188;51.958;5.842;2022-09-29T04:20:24;6.50;99.90
39021;DHT22;25188;51.958;5.842;2022-09-29T04:22:49;6.50;99.90
39021;DHT22;25188;51.958;5.842;2022-09-29T04:25:15;6.50;99.90
39021;DHT22;25188;51.958;5.842;2022-09-29T04:27:41;6.50;99.90
39021;DHT22;25188;51.958;5.842;2022-09-29T04:30:07;6.60;99.90
39021;DHT22;25188;51.958;5.842;2022-09-29T04:32:33;6.50;99.90
39021;DHT22;25188;51.958;5.842;2022-09-29T04:34:59;6.50;99.90
39021;DHT22;25188;51.958;5.842;2022-09-29T04:37:25;6.50;99.90
39021;DHT22;25188;51.958;5.842;2022-09-29T04:39:50;6.50;99.90
39021;DHT22;25188;51.958;5.842;2022-09-29T04:42:18;6.50;99.90
39021;DHT22;25188;51.958;5.842;2022-09-29T04:44:43;6.50;99.90
39021;DHT22;25188;51.958;5.842;2022-09-29T04:47:09;6.50;99.90
39021;DHT22;25188;51.958;5.842;2022-09-29T04:49:35;6.50;99.90
39021;DHT22;25188;51.958;5.842;2022-09-29T04:52:00;6.50;99.90
39021;DHT22;25188;51.958;5.842;2022-09-29T04:54:30;6.50;99.90
39021;DHT22;25188;51.958;5.842;2022-09-29T04:56:56;6.50;99.90
39021;DHT22;25188;51.958;5.842;2022-09-29T04:59:21;6.50;99.90
39021;DHT22;25188;51.958;5.842;2022-09-29T05:01:48;6.50;99.90
39021;DHT22;25188;51.958;5.842;2022-09-29T05:04:14;6.50;99.90
39021;DHT22;25188;51.958;5.842;2022-09-29T05:06:40;6.60;99.90
39021;DHT22;25188;51.958;5.842;2022-09-29T05:09:06;6.60;99.90
39021;DHT22;25188;51.958;5.842;2022-09-29T05:11:31;6.80;99.90
39021;DHT22;25188;51.958;5.842;2022-09-29T05:13:57;6.60;99.90
39021;DHT22;25188;51.958;5.842;2022-09-29T05:16:23;6.70;99.90
39021;DHT22;25188;51.958;5.842;2022-09-29T05:18:49;6.70;99.90
39021;DHT22;25188;51.958;5.842;2022-09-29T05:21:15;6.70;99.90
39021;DHT22;25188;51.958;5.842;2022-09-29T05:23:41;6.70;99.90
39021;DHT22;25188;51.958;5.842;2022-09-29T05:26:08;6.70;99.90
39021;DHT22;25188;51.958;5.842;2022-09-29T05:28:35;6.70;99.90
39021;DHT22;25188;51.958;5.842;2022-09-29T05:31:06;6.80;99.90
39021;DHT22;25188;51.958;5.842;2022-09-29T05:33:33;6.80;99.90
39021;DHT22;25188;51.958;5.842;2022-09-29T05:35:59;6.80;99.90
39021;DHT22;25188;51.958;5.842;2022-09-29T05:38:25;6.80;99.90
39021;DHT22;25188;51.958;5.842;2022-09-29T05:40:52;6.80;99.90
39021;DHT22;25188;51.958;5.842;2022-09-29T05:43:19;6.80;99.90
39021;DHT22;25188;51.958;5.842;2022-09-29T05:45:45;6.80;99.90
39021;DHT22;25188;51.958;5.842;2022-09-29T05:48:10;6.80;99.90
39021;DHT22;25188;51.958;5.842;2022-09-29T05:50:36;6.80;99.90
39021;DHT22;25188;51.958;5.842;2022-09-29T05:53:06;6.80;99.90
39021;DHT22;25188;51.958;5.842;2022-09-29T05:55:34;6.80;99.90
39021;DHT22;25188;51.958;5.842;2022-09-29T05:58:00;6.80;99.90
39021;DHT22;25188;51.958;5.842;2022-09-29T06:00:25;6.80;99.90
39021;DHT22;25188;51.958;5.842;2022-09-29T06:02:51;6.80;99.90
39021;DHT22;25188;51.958;5.842;2022-09-29T06:05:17;6.90;99.90
39021;DHT22;25188;51.958;5.842;2022-09-29T06:07:42;6.90;99.90
39021;DHT22;25188;51.958;5.842;2022-09-29T06:10:08;6.90;99.90
39021;DHT22;25188;51.958;5.842;2022-09-29T06:12:35;6.90;99.90
39021;DHT22;25188;51.958;5.842;2022-09-29T06:15:04;7.00;99.90
39021;DHT22;25188;51.958;5.842;2022-09-29T06:17:30;7.00;99.90
39021;DHT22;25188;51.958;5.842;2022-09-29T06:19:56;7.00;99.90
39021;DHT22;25188;51.958;5.842;2022-09-29T06:22:21;7.00;99.90
39021;DHT22;25188;51.958;5.842;2022-09-29T06:24:47;7.10;99.90
39021;DHT22;25188;51.958;5.842;2022-09-29T06:27:12;7.10;99.90
39021;DHT22;25188;51.958;5.842;2022-09-29T06:29:39;7.10;99.90
39021;DHT22;25188;51.958;5.842;2022-09-29T06:32:04;7.10;99.90
39021;DHT22;25188;51.958;5.842;2022-09-29T06:34:30;7.10;99.90
39021;DHT22;25188;51.958;5.842;2022-09-29T06:36:55;7.20;99.90
39021;DHT22;25188;51.958;5.842;2022-09-29T06:39:40;7.30;99.90
39021;DHT22;25188;51.958;5.842;2022-09-29T06:42:06;7.20;99.90
39021;DHT22;25188;51.958;5.842;2022-09-29T06:44:32;7.20;99.90
39021;DHT22;25188;51.958;5.842;2022-09-29T06:46:58;7.20;99.90
39021;DHT22;25188;51.958;5.842;2022-09-29T06:49:24;7.30;99.90
39021;DHT22;25188;51.958;5.842;2022-09-29T06:51:50;7.30;99.90
39021;DHT22;25188;51.958;5.842;2022-09-29T06:54:18;7.40;99.90
39021;DHT22;25188;51.958;5.842;2022-09-29T06:56:52;7.50;99.90
39021;DHT22;25188;51.958;5.842;2022-09-29T06:59:18;7.50;99.90
39021;DHT22;25188;51.958;5.842;2022-09-29T07:01:44;7.60;99.90
39021;DHT22;25188;51.958;5.842;2022-09-29T07:04:13;7.60;99.90
39021;DHT22;25188;51.958;5.842;2022-09-29T07:06:39;7.70;99.90
39021;DHT22;25188;51.958;5.842;2022-09-29T07:09:05;7.80;99.90
39021;DHT22;25188;51.958;5.842;2022-09-29T07:11:30;7.80;99.90
39021;DHT22;25188;51.958;5.842;2022-09-29T07:13:56;8.00;99.90
39021;DHT22;25188;51.958;5.842;2022-09-29T07:16:22;7.90;99.90
39021;DHT22;25188;51.958;5.842;2022-09-29T07:18:48;8.00;99.90
39021;DHT22;25188;51.958;5.842;2022-09-29T07:21:14;8.10;99.90
39021;DHT22;25188;51.958;5.842;2022-09-29T07:23:42;8.10;99.90
39021;DHT22;25188;51.958;5.842;2022-09-29T07:26:08;8.20;99.90
39021;DHT22;25188;51.958;5.842;2022-09-29T07:28:35;8.20;99.90
39021;DHT22;25188;51.958;5.842;2022-09-29T07:31:08;8.30;99.90
39021;DHT22;25188;51.958;5.842;2022-09-29T07:33:34;8.30;99.90
39021;DHT22;25188;51.958;5.842;2022-09-29T07:36:00;8.40;99.90
39021;DHT22;25188;51.958;5.842;2022-09-29T07:38:27;8.40;99.90
39021;DHT22;25188;51.958;5.842;2022-09-29T07:40:53;8.50;99.90
39021;DHT22;25188;51.958;5.842;2022-09-29T07:43:18;8.70;99.90
39021;DHT22;25188;51.958;5.842;2022-09-29T07:45:48;8.70;99.90
39021;DHT22;25188;51.958;5.842;2022-09-29T07:48:15;8.80;99.90
39021;DHT22;25188;51.958;5.842;2022-09-29T07:50:42;8.90;99.90
39021;DHT22;25188;51.958;5.842;2022-09-29T07:53:09;8.90;99.90
39021;DHT22;25188;51.958;5.842;2022-09-29T07:55:35;9.00;99.90
39021;DHT22;25188;51.958;5.842;2022-09-29T07:58:00;9.00;99.90
39021;DHT22;25188;51.958;5.842;2022-09-29T08:00:27;9.10;99.90
39021;DHT22;25188;51.958;5.842;2022-09-29T08:03:01;9.20;99.90
39021;DHT22;25188;51.958;5.842;2022-09-29T08:05:28;9.20;99.90
39021;DHT22;25188;51.958;5.842;2022-09-29T08:07:54;9.30;99.90
39021;DHT22;25188;51.958;5.842;2022-09-29T08:10:23;9.40;99.90
39021;DHT22;25188;51.958;5.842;2022-09-29T08:12:49;9.50;99.90
39021;DHT22;25188;51.958;5.842;2022-09-29T08:15:14;9.60;99.90
39021;DHT22;25188;51.958;5.842;2022-09-29T08:17:40;9.60;99.90
39021;DHT22;25188;51.958;5.842;2022-09-29T08:20:06;9.70;99.90
39021;DHT22;25188;51.958;5.842;2022-09-29T08:22:32;9.80;99.90
39021;DHT22;25188;51.958;5.842;2022-09-29T08:24:58;9.80;99.90
39021;DHT22;25188;51.958;5.842;2022-09-29T08:27:24;9.90;99.90
39021;DHT22;25188;51.958;5.842;2022-09-29T08:29:49;10.00;99.90
39021;DHT22;25188;51.958;5.842;2022-09-29T08:32:15;10.10;99.90
39021;DHT22;25188;51.958;5.842;2022-09-29T08:34:41;10.20;99.90
39021;DHT22;25188;51.958;5.842;2022-09-29T08:37:07;10.30;99.90
39021;DHT22;25188;51.958;5.842;2022-09-29T08:39:33;10.40;99.90
39021;DHT22;25188;51.958;5.842;2022-09-29T08:45:02;10.70;99.90
39021;DHT22;25188;51.958;5.842;2022-09-29T08:47:43;10.80;99.90
39021;DHT22;25188;51.958;5.842;2022-09-29T08:52:41;11.10;99.90
39021;DHT22;25188;51.958;5.842;2022-09-29T08:57:45;11.40;99.90
39021;DHT22;25188;51.958;5.842;2022-09-29T09:00:13;11.60;99.90
39021;DHT22;25188;51.958;5.842;2022-09-29T09:03:18;11.70;99.90
39021;DHT22;25188;51.958;5.842;2022-09-29T09:14:17;12.10;99.90
39021;DHT22;25188;51.958;5.842;2022-09-29T09:24:48;12.40;98.80
39021;DHT22;25188;51.958;5.842;2022-09-29T09:27:19;12.50;98.70
39021;DHT22;25188;51.958;5.842;2022-09-29T09:29:49;12.50;98.10
39021;DHT22;25188;51.958;5.842;2022-09-29T09:32:26;12.50;98.00
39021;DHT22;25188;51.958;5.842;2022-09-29T09:37:31;12.50;97.50
39021;DHT22;25188;51.958;5.842;2022-09-29T09:40:10;12.50;97.30
39021;DHT22;25188;51.958;5.842;2022-09-29T09:42:42;12.50;97.20
39021;DHT22;25188;51.958;5.842;2022-09-29T09:45:31;12.60;97.20
39021;DHT22;25188;51.958;5.842;2022-09-29T09:48:21;12.80;97.20
39021;DHT22;25188;51.958;5.842;2022-09-29T09:50:49;13.00;96.90
39021;DHT22;25188;51.958;5.842;2022-09-29T09:53:19;13.30;96.70
39021;DHT22;25188;51.958;5.842;2022-09-29T09:55:57;13.70;96.60
39021;DHT22;25188;51.958;5.842;2022-09-29T10:01:11;14.60;97.00
39021;DHT22;25188;51.958;5.842;2022-09-29T10:03:37;15.30;97.90
39021;DHT22;25188;51.958;5.842;2022-09-29T10:06:05;16.00;98.00
39021;DHT22;25188;51.958;5.842;2022-09-29T10:08:33;16.90;97.70
39021;DHT22;25188;51.958;5.842;2022-09-29T10:11:04;17.70;97.30
39021;DHT22;25188;51.958;5.842;2022-09-29T10:13:36;18.60;96.60
39021;DHT22;25188;51.958;5.842;2022-09-29T10:16:15;19.40;95.10
39021;DHT22;25188;51.958;5.842;2022-09-29T10:18:46;20.20;92.40
39021;DHT22;25188;51.958;5.842;2022-09-29T10:21:34;21.00;91.50
39021;DHT22;25188;51.958;5.842;2022-09-29T10:24:01;21.70;86.70
39021;DHT22;25188;51.958;5.842;2022-09-29T10:32:03;23.70;76.50
39021;DHT22;25188;51.958;5.842;2022-09-29T10:34:30;24.30;73.30
39021;DHT22;25188;51.958;5.842;2022-09-29T10:37:02;24.90;72.20
39021;DHT22;25188;51.958;5.842;2022-09-29T10:39:46;25.40;68.30
39021;DHT22;25188;51.958;5.842;2022-09-29T10:42:27;25.90;63.70
39021;DHT22;25188;51.958;5.842;2022-09-29T10:45:23;26.30;62.60
39021;DHT22;25188;51.958;5.842;2022-09-29T10:50:25;27.00;58.10
39021;DHT22;25188;51.958;5.842;2022-09-29T10:52:59;27.30;57.10
39021;DHT22;25188;51.958;5.842;2022-09-29T10:55:33;27.50;55.30
39021;DHT22;25188;51.958;5.842;2022-09-29T10:58:15;27.70;54.30
39021;DHT22;25188;51.958;5.842;2022-09-29T11:00:45;27.90;53.00
39021;DHT22;25188;51.958;5.842;2022-09-29T11:03:24;28.20;52.20
39021;DHT22;25188;51.958;5.842;2022-09-29T11:05:52;28.40;50.20
39021;DHT22;25188;51.958;5.842;2022-09-29T11:08:19;28.50;50.50
39021;DHT22;25188;51.958;5.842;2022-09-29T11:18:49;29.40;47.60
39021;DHT22;25188;51.958;5.842;2022-09-29T11:38:55;30.70;44.20
39021;DHT22;25188;51.958;5.842;2022-09-29T11:47:19;28.80;43.20
39021;DHT22;25188;51.958;5.842;2022-09-29T11:52:33;28.80;44.50
39021;DHT22;25188;51.958;5.842;2022-09-29T11:55:28;29.20;44.50
39021;DHT22;25188;51.958;5.842;2022-09-29T12:09:00;31.60;40.00
39021;DHT22;25188;51.958;5.842;2022-09-29T12:11:34;32.00;40.50
39021;DHT22;25188;51.958;5.842;2022-09-29T12:14:27;32.20;39.30
39021;DHT22;25188;51.958;5.842;2022-09-29T12:17:03;32.50;38.30
39021;DHT22;25188;51.958;5.842;2022-09-29T12:19:35;32.80;38.60
39021;DHT22;25188;51.958;5.842;2022-09-29T12:22:03;33.10;38.50
39021;DHT22;25188;51.958;5.842;2022-09-29T12:24:47;33.20;38.40
39021;DHT22;25188;51.958;5.842;2022-09-29T12:27:32;33.60;38.10
39021;DHT22;25188;51.958;5.842;2022-09-29T12:30:28;33.70;37.30
39021;DHT22;25188;51.958;5.842;2022-09-29T12:33:36;33.80;37.50
39021;DHT22;25188;51.958;5.842;2022-09-29T12:36:37;34.00;36.80
39021;DHT22;25188;51.958;5.842;2022-09-29T12:42:49;34.00;35.80
39021;DHT22;25188;51.958;5.842;2022-09-29T12:48:18;33.40;34.80
39021;DHT22;25188;51.958;5.842;2022-09-29T12:51:08;32.50;35.00
39021;DHT22;25188;51.958;5.842;2022-09-29T12:56:28;30.20;36.50
39021;DHT22;25188;51.958;5.842;2022-09-29T12:59:02;29.20;36.90
39021;DHT22;25188;51.958;5.842;2022-09-29T13:01:31;28.60;37.80
39021;DHT22;25188;51.958;5.842;2022-09-29T13:12:24;29.90;38.10
39021;DHT22;25188;51.958;5.842;2022-09-29T13:15:19;30.30;37.70
39021;DHT22;25188;51.958;5.842;2022-09-29T13:20:48;31.20;38.00
39021;DHT22;25188;51.958;5.842;2022-09-29T13:28:49;32.00;35.30
39021;DHT22;25188;51.958;5.842;2022-09-29T13:31:21;32.30;35.80
39021;DHT22;25188;51.958;5.842;2022-09-29T13:33:50;32.50;35.60
39021;DHT22;25188;51.958;5.842;2022-09-29T13:36:31;32.30;34.90
39021;DHT22;25188;51.958;5.842;2022-09-29T13:39:04;31.40;34.20
39021;DHT22;25188;51.958;5.842;2022-09-29T13:41:32;30.40;34.90
39021;DHT22;25188;51.958;5.842;2022-09-29T13:44:17;29.30;35.80
39021;DHT22;25188;51.958;5.842;2022-09-29T13:46:44;28.40;36.60
39021;DHT22;25188;51.958;5.842;2022-09-29T13:51:47;28.30;38.10
39021;DHT22;25188;51.958;5.842;2022-09-29T13:54:22;28.90;37.80
39021;DHT22;25188;51.958;5.842;2022-09-29T13:59:41;30.20;36.80
39021;DHT22;25188;51.958;5.842;2022-09-29T14:11:00;31.00;35.40
39021;DHT22;25188;51.958;5.842;2022-09-29T14:13:25;31.20;35.40
39021;DHT22;25188;51.958;5.842;2022-09-29T14:16:15;31.30;35.60
39021;DHT22;25188;51.958;5.842;2022-09-29T14:19:07;31.30;35.60
39021;DHT22;25188;51.958;5.842;2022-09-29T14:24:44;31.40;35.20
39021;DHT22;25188;51.958;5.842;2022-09-29T14:27:27;31.50;34.90
39021;DHT22;25188;51.958;5.842;2022-09-29T14:30:09;31.60;34.90
39021;DHT22;25188;51.958;5.842;2022-09-29T14:38:24;31.60;34.30
39021;DHT22;25188;51.958;5.842;2022-09-29T14:43:56;31.90;34.20
39021;DHT22;25188;51.958;5.842;2022-09-29T14:49:44;32.00;33.80
39021;DHT22;25188;51.958;5.842;2022-09-29T15:01:13;32.70;33.80
39021;DHT22;25188;51.958;5.842;2022-09-29T15:03:51;32.70;33.50
39021;DHT22;25188;51.958;5.842;2022-09-29T15:06:19;32.80;33.40
39021;DHT22;25188;51.958;5.842;2022-09-29T15:09:18;32.60;33.10
39021;DHT22;25188;51.958;5.842;2022-09-29T15:11:53;32.50;33.00
39021;DHT22;25188;51.958;5.842;2022-09-29T15:14:26;32.30;33.10
39021;DHT22;25188;51.958;5.842;2022-09-29T15:23:08;31.80;33.60
39021;DHT22;25188;51.958;5.842;2022-09-29T15:25:42;31.70;33.50
39021;DHT22;25188;51.958;5.842;2022-09-29T15:30:49;31.40;34.00
39021;DHT22;25188;51.958;5.842;2022-09-29T15:33:22;31.40;34.00
39021;DHT22;25188;51.958;5.842;2022-09-29T15:35:56;31.20;34.40
39021;DHT22;25188;51.958;5.842;2022-09-29T15:40:56;30.20;34.50
39021;DHT22;25188;51.958;5.842;2022-09-29T15:43:28;29.90;34.80
39021;DHT22;25188;51.958;5.842;2022-09-29T15:45:59;29.70;35.20
39021;DHT22;25188;51.958;5.842;2022-09-29T15:48:27;29.40;35.70
39021;DHT22;25188;51.958;5.842;2022-09-29T15:50:53;29.10;36.10
39021;DHT22;25188;51.958;5.842;2022-09-29T15:53:25;28.70;36.50
39021;DHT22;25188;51.958;5.842;2022-09-29T15:55:52;28.20;37.10
39021;DHT22;25188;51.958;5.842;2022-09-29T16:01:02;27.70;38.00
39021;DHT22;25188;51.958;5.842;2022-09-29T16:06:19;27.20;39.10
39021;DHT22;25188;51.958;5.842;2022-09-29T16:08:50;26.70;39.20
39021;DHT22;25188;51.958;5.842;2022-09-29T16:11:46;26.30;39.70
39021;DHT22;25188;51.958;5.842;2022-09-29T16:14:23;25.80;40.50
39021;DHT22;25188;51.958;5.842;2022-09-29T16:16:51;25.30;40.90
39021;DHT22;25188;51.958;5.842;2022-09-29T16:21:54;24.50;42.00
39021;DHT22;25188;51.958;5.842;2022-09-29T16:24:23;24.10;42.60
39021;DHT22;25188;51.958;5.842;2022-09-29T16:26:52;23.70;43.30
39021;DHT22;25188;51.958;5.842;2022-09-29T16:31:46;23.00;44.30
39021;DHT22;25188;51.958;5.842;2022-09-29T16:36:55;22.30;45.40
39021;DHT22;25188;51.958;5.842;2022-09-29T16:39:30;22.00;45.70
39021;DHT22;25188;51.958;5.842;2022-09-29T16:42:02;21.70;46.50
39021;DHT22;25188;51.958;5.842;2022-09-29T16:44:32;21.40;46.90
39021;DHT22;25188;51.958;5.842;2022-09-29T16:49:58;20.80;48.20
39021;DHT22;25188;51.958;5.842;2022-09-29T16:52:28;20.50;48.80
39021;DHT22;25188;51.958;5.842;2022-09-29T16:55:25;20.30;49.20
39021;DHT22;25188;51.958;5.842;2022-09-29T16:58:04;20.00;49.90
39021;DHT22;25188;51.958;5.842;2022-09-29T17:00:32;19.80;50.30
39021;DHT22;25188;51.958;5.842;2022-09-29T17:02:58;19.60;50.50
39021;DHT22;25188;51.958;5.842;2022-09-29T17:05:34;19.40;51.10
39021;DHT22;25188;51.958;5.842;2022-09-29T17:08:03;19.20;52.20
39021;DHT22;25188;51.958;5.842;2022-09-29T17:10:29;19.00;53.00
39021;DHT22;25188;51.958;5.842;2022-09-29T17:12:55;18.80;53.40
39021;DHT22;25188;51.958;5.842;2022-09-29T17:15:23;18.70;53.90
39021;DHT22;25188;51.958;5.842;2022-09-29T17:17:51;18.50;54.30
39021;DHT22;25188;51.958;5.842;2022-09-29T17:20:22;18.40;54.90
39021;DHT22;25188;51.958;5.842;2022-09-29T17:22:54;18.30;55.40
39021;DHT22;25188;51.958;5.842;2022-09-29T17:25:20;18.10;55.80
39021;DHT22;25188;51.958;5.842;2022-09-29T17:27:47;18.00;56.20
39021;DHT22;25188;51.958;5.842;2022-09-29T17:30:31;17.90;56.80
39021;DHT22;25188;51.958;5.842;2022-09-29T17:32:57;17.80;57.10
39021;DHT22;25188;51.958;5.842;2022-09-29T17:35:27;17.70;57.60
39021;DHT22;25188;51.958;5.842;2022-09-29T17:37:53;17.60;58.00
39021;DHT22;25188;51.958;5.842;2022-09-29T17:42:46;17.40;59.40
39021;DHT22;25188;51.958;5.842;2022-09-29T17:45:16;17.20;59.50
39021;DHT22;25188;51.958;5.842;2022-09-29T17:47:43;17.10;60.30
39021;DHT22;25188;51.958;5.842;2022-09-29T17:50:17;17.10;60.50
39021;DHT22;25188;51.958;5.842;2022-09-29T17:52:44;16.90;61.10
39021;DHT22;25188;51.958;5.842;2022-09-29T17:55:10;16.80;61.40
39021;DHT22;25188;51.958;5.842;2022-09-29T17:57:37;16.70;62.00
39021;DHT22;25188;51.958;5.842;2022-09-29T18:00:13;16.60;62.40
39021;DHT22;25188;51.958;5.842;2022-09-29T18:02:39;16.50;62.70
39021;DHT22;25188;51.958;5.842;2022-09-29T18:05:05;16.40;63.10
39021;DHT22;25188;51.958;5.842;2022-09-29T18:07:31;16.30;63.50
39021;DHT22;25188;51.958;5.842;2022-09-29T18:09:56;16.20;63.80
39021;DHT22;25188;51.958;5.842;2022-09-29T18:12:22;16.20;64.30
39021;DHT22;25188;51.958;5.842;2022-09-29T18:14:47;16.00;64.60
39021;DHT22;25188;51.958;5.842;2022-09-29T18:17:13;15.90;65.10
39021;DHT22;25188;51.958;5.842;2022-09-29T18:19:39;15.70;65.70
39021;DHT22;25188;51.958;5.842;2022-09-29T18:22:06;15.60;66.20
39021;DHT22;25188;51.958;5.842;2022-09-29T18:24:33;15.50;66.70
39021;DHT22;25188;51.958;5.842;2022-09-29T18:26:58;15.30;67.00
39021;DHT22;25188;51.958;5.842;2022-09-29T18:29:24;15.20;67.30
39021;DHT22;25188;51.958;5.842;2022-09-29T18:31:50;15.00;67.60
39021;DHT22;25188;51.958;5.842;2022-09-29T18:34:18;14.90;68.00
39021;DHT22;25188;51.958;5.842;2022-09-29T18:36:44;14.80;68.60
39021;DHT22;25188;51.958;5.842;2022-09-29T18:39:11;14.70;68.90
39021;DHT22;25188;51.958;5.842;2022-09-29T18:41:37;14.50;69.00
39021;DHT22;25188;51.958;5.842;2022-09-29T18:44:14;14.50;69.40
39021;DHT22;25188;51.958;5.842;2022-09-29T18:46:41;14.30;69.80
39021;DHT22;25188;51.958;5.842;2022-09-29T18:49:12;14.20;69.90
39021;DHT22;25188;51.958;5.842;2022-09-29T18:51:38;14.10;70.30
39021;DHT22;25188;51.958;5.842;2022-09-29T18:54:04;14.00;70.70
39021;DHT22;25188;51.958;5.842;2022-09-29T18:56:31;13.90;71.00
39021;DHT22;25188;51.958;5.842;2022-09-29T18:58:57;13.90;71.50
39021;DHT22;25188;51.958;5.842;2022-09-29T19:01:24;13.70;71.80
39021;DHT22;25188;51.958;5.842;2022-09-29T19:03:54;13.70;72.20
39021;DHT22;25188;51.958;5.842;2022-09-29T19:06:19;13.60;72.20
39021;DHT22;25188;51.958;5.842;2022-09-29T19:08:45;13.50;72.40
39021;DHT22;25188;51.958;5.842;2022-09-29T19:11:22;13.40;72.50
39021;DHT22;25188;51.958;5.842;2022-09-29T19:13:48;13.40;72.80
39021;DHT22;25188;51.958;5.842;2022-09-29T19:16:19;13.30;73.10
39021;DHT22;25188;51.958;5.842;2022-09-29T19:18:45;13.30;73.50
39021;DHT22;25188;51.958;5.842;2022-09-29T19:21:13;13.20;73.70
39021;DHT22;25188;51.958;5.842;2022-09-29T19:23:40;13.10;74.00
39021;DHT22;25188;51.958;5.842;2022-09-29T19:26:14;13.00;74.10
39021;DHT22;25188;51.958;5.842;2022-09-29T19:28:40;12.90;74.40
39021;DHT22;25188;51.958;5.842;2022-09-29T19:31:09;12.90;74.60
39021;DHT22;25188;51.958;5.842;2022-09-29T19:33:37;12.80;74.80
39021;DHT22;25188;51.958;5.842;2022-09-29T19:36:05;12.80;75.10